Time;durP1;ratioP1;P1;durP2;ratioP2;P2;SDS_P1;SDS_P2;PMS_P1;PMS_P2;Temp;Humidity;BMP_temperature;BMP_pressure;BME280_temperature;BME280_humidity;BME280_pressure;Samples;Min_cycle;Max_cycle;Signal;HPM_P1;HPM_P2
2024/03/20 00:01:33;;;;;;;9.43;5.40;;;2.30;99.90;;;;;;4178699;28;20254;-56
2024/03/20 00:03:35;;;;;;;6.50;4.60;;;2.20;99.90;;;;;;4165038;28;20665;-59
2024/03/20 00:05:36;;;;;;;9.23;5.87;;;2.10;99.90;;;;;;4161707;28;20270;-56
2024/03/20 00:07:37;;;;;;;7.33;5.33;;;2.10;99.90;;;;;;4160750;28;20666;-57
2024/03/20 00:09:39;;;;;;;10.33;5.20;;;2.00;99.90;;;;;;4161957;28;20263;-58
2024/03/20 00:11:40;;;;;;;8.90;4.93;;;1.90;99.90;;;;;;4160450;28;20282;-57
2024/03/20 00:13:42;;;;;;;10.03;6.27;;;1.90;99.90;;;;;;4162241;28;20742;-58
2024/03/20 00:15:43;;;;;;;7.90;5.03;;;1.90;99.90;;;;;;4172361;28;20277;-57
2024/03/20 00:17:47;;;;;;;8.43;5.57;;;1.80;99.90;;;;;;4177781;28;20824;-57
2024/03/20 00:19:48;;;;;;;6.93;4.50;;;1.80;99.90;;;;;;4167141;28;20678;-58
2024/03/20 00:21:49;;;;;;;8.93;5.30;;;1.80;99.90;;;;;;4175454;28;20284;-57
2024/03/20 00:23:51;;;;;;;10.37;5.50;;;1.70;99.90;;;;;;4176999;28;20645;-59
2024/03/20 00:25:52;;;;;;;9.03;5.70;;;1.80;99.90;;;;;;4177506;28;20274;-55
2024/03/20 00:27:53;;;;;;;8.13;5.77;;;1.70;99.90;;;;;;4164059;28;20255;-58
2024/03/20 00:29:54;;;;;;;9.60;5.70;;;1.70;99.90;;;;;;4160014;28;20287;-61
2024/03/20 00:31:56;;;;;;;9.20;5.23;;;1.70;99.90;;;;;;4161829;28;20266;-56
2024/03/20 00:33:57;;;;;;;8.37;5.40;;;1.70;99.90;;;;;;4166141;28;20320;-59
2024/03/20 00:35:58;;;;;;;10.33;5.90;;;1.70;99.90;;;;;;4161451;28;20275;-56
2024/03/20 00:38:00;;;;;;;9.30;5.33;;;1.70;99.90;;;;;;4160299;28;20279;-57
2024/03/20 00:40:04;;;;;;;8.53;5.47;;;1.70;99.90;;;;;;4162071;28;20333;-58
2024/03/20 00:42:05;;;;;;;7.90;5.10;;;1.60;99.90;;;;;;4160378;28;20271;-54
2024/03/20 00:44:06;;;;;;;8.90;5.50;;;1.70;99.90;;;;;;4166241;28;20282;-55
2024/03/20 00:46:07;;;;;;;11.07;5.30;;;1.60;99.90;;;;;;4176395;28;20344;-57
2024/03/20 00:48:09;;;;;;;8.67;5.33;;;1.60;99.90;;;;;;4177924;28;20323;-52
2024/03/20 00:50:11;;;;;;;8.83;5.17;;;1.60;99.90;;;;;;4176701;28;20669;-57
2024/03/20 00:52:13;;;;;;;8.97;5.80;;;1.60;99.90;;;;;;4176176;28;20347;-56
2024/03/20 00:54:14;;;;;;;10.23;6.33;;;1.50;99.90;;;;;;4179099;28;20262;-59
2024/03/20 00:56:15;;;;;;;9.17;5.00;;;1.60;99.90;;;;;;4181157;28;20674;-59
2024/03/20 00:58:16;;;;;;;9.67;6.37;;;1.50;99.90;;;;;;4179352;28;20347;-60
2024/03/20 01:00:18;;;;;;;7.30;4.93;;;1.60;99.90;;;;;;4180275;28;20289;-58
2024/03/20 01:02:19;;;;;;;7.37;4.63;;;1.60;99.90;;;;;;4181461;28;20262;-57
2024/03/20 01:04:20;;;;;;;8.93;4.77;;;1.60;99.90;;;;;;4164524;28;21240;-57
2024/03/20 01:06:22;;;;;;;8.53;4.83;;;1.70;99.90;;;;;;4164656;28;20337;-58
2024/03/20 01:08:23;;;;;;;9.83;5.17;;;1.70;99.90;;;;;;4164118;28;20254;-60
2024/03/20 01:10:25;;;;;;;7.47;5.03;;;1.70;99.90;;;;;;4163731;28;21135;-55
2024/03/20 01:12:26;;;;;;;10.10;5.20;;;1.80;99.90;;;;;;4163415;28;20271;-57
2024/03/20 01:14:28;;;;;;;9.37;5.73;;;1.80;99.90;;;;;;4164330;28;20263;-58
2024/03/20 01:16:29;;;;;;;6.40;4.47;;;1.80;99.90;;;;;;4178258;28;20281;-54
2024/03/20 01:18:30;;;;;;;8.37;5.17;;;1.80;99.90;;;;;;4180330;28;20328;-57
2024/03/20 01:20:31;;;;;;;7.63;5.27;;;1.90;99.90;;;;;;4179597;28;20293;-56
2024/03/20 01:22:36;;;;;;;9.33;5.77;;;1.90;99.90;;;;;;4180320;28;20363;-57
2024/03/20 01:24:38;;;;;;;8.47;5.37;;;1.90;99.90;;;;;;4179455;28;20399;-57
2024/03/20 01:26:39;;;;;;;9.20;5.40;;;1.90;99.90;;;;;;4180034;28;20274;-55
2024/03/20 01:28:42;;;;;;;7.13;4.87;;;1.90;99.90;;;;;;4176790;28;20319;-54
2024/03/20 01:30:43;;;;;;;8.10;4.73;;;1.90;99.90;;;;;;4173146;28;20359;-56
2024/03/20 01:32:44;;;;;;;7.90;4.83;;;1.90;99.90;;;;;;4180444;28;20304;-55
2024/03/20 01:34:45;;;;;;;7.23;5.10;;;1.90;99.90;;;;;;4179646;28;20743;-57
2024/03/20 01:36:47;;;;;;;8.50;5.73;;;1.90;99.90;;;;;;4180359;28;20815;-60
2024/03/20 01:38:48;;;;;;;8.63;5.70;;;1.90;99.90;;;;;;4167420;28;20279;-54
2024/03/20 01:40:50;;;;;;;6.93;5.17;;;1.90;99.90;;;;;;4164264;28;20325;-56
2024/03/20 01:42:55;;;;;;;8.27;4.93;;;1.90;99.90;;;;;;4162504;28;20283;-58
2024/03/20 01:45:17;;;;;;;8.03;5.60;;;1.90;99.90;;;;;;4172436;28;20838;-57
2024/03/20 01:47:18;;;;;;;8.00;4.73;;;1.90;99.90;;;;;;4178704;28;20279;-59
2024/03/20 01:49:19;;;;;;;8.80;4.70;;;1.90;99.90;;;;;;4179977;28;20327;-59
2024/03/20 01:51:21;;;;;;;8.77;5.37;;;1.80;99.90;;;;;;4178983;28;20886;-58
2024/03/20 01:53:23;;;;;;;6.73;5.60;;;1.80;99.90;;;;;;4179961;28;20328;-58
2024/03/20 01:55:24;;;;;;;8.07;5.43;;;1.80;99.90;;;;;;4179226;28;20266;-53
2024/03/20 01:57:26;;;;;;;10.57;5.37;;;1.80;99.90;;;;;;4180328;28;20320;-56
2024/03/20 01:59:27;;;;;;;7.70;5.33;;;1.80;99.90;;;;;;4178585;28;20840;-58
2024/03/20 02:01:29;;;;;;;7.00;4.97;;;1.80;99.90;;;;;;4177851;28;20356;-57
2024/03/20 02:03:30;;;;;;;7.23;5.23;;;1.80;99.90;;;;;;4162693;28;20258;-57
2024/03/20 02:05:31;;;;;;;8.47;5.40;;;1.80;99.90;;;;;;4162861;28;20863;-56
2024/03/20 02:07:32;;;;;;;8.67;5.37;;;1.70;99.90;;;;;;4162905;28;20658;-60
2024/03/20 02:09:34;;;;;;;10.10;5.90;;;1.70;99.90;;;;;;4162791;28;20262;-58
2024/03/20 02:11:35;;;;;;;9.67;5.80;;;1.70;99.90;;;;;;4162986;28;20294;-58
2024/03/20 02:13:50;;;;;;;11.60;6.07;;;1.70;99.90;;;;;;4162759;28;20336;-56
2024/03/20 02:15:51;;;;;;;7.80;5.13;;;1.70;99.90;;;;;;4163041;28;20267;-55
2024/03/20 02:17:53;;;;;;;8.83;6.00;;;1.70;99.90;;;;;;4162607;28;21157;-57
2024/03/20 02:19:54;;;;;;;9.57;5.70;;;1.70;99.90;;;;;;4174113;28;20364;-54
2024/03/20 02:21:55;;;;;;;7.30;5.57;;;1.70;99.90;;;;;;4178368;28;20819;-57
2024/03/20 02:23:56;;;;;;;10.67;6.20;;;1.60;99.90;;;;;;4179382;28;20828;-59
2024/03/20 02:25:58;;;;;;;13.80;5.50;;;1.60;99.90;;;;;;4178607;28;20742;-61
2024/03/20 02:27:59;;;;;;;8.17;5.50;;;1.60;99.90;;;;;;4179155;28;20423;-60
2024/03/20 02:30:00;;;;;;;9.17;5.13;;;1.60;99.90;;;;;;4177856;28;20266;-57
2024/03/20 02:32:02;;;;;;;8.17;5.40;;;1.60;99.90;;;;;;4180087;28;20367;-53
2024/03/20 02:34:03;;;;;;;10.23;5.73;;;1.60;99.90;;;;;;4167272;28;20275;-55
2024/03/20 02:36:05;;;;;;;7.60;5.23;;;1.60;99.90;;;;;;4177057;28;20274;-61
2024/03/20 02:38:07;;;;;;;10.47;5.93;;;1.50;99.90;;;;;;4164271;28;20274;-58
2024/03/20 02:40:09;;;;;;;10.80;6.43;;;1.50;99.90;;;;;;4178576;28;20707;-58
2024/03/20 02:42:10;;;;;;;8.03;5.87;;;1.40;99.90;;;;;;4178821;28;20246;-60
2024/03/20 02:44:12;;;;;;;8.17;5.43;;;1.50;99.90;;;;;;4172597;28;20321;-56
2024/03/20 02:46:14;;;;;;;8.17;5.50;;;1.50;99.90;;;;;;4166685;28;20273;-58
2024/03/20 02:48:15;;;;;;;10.87;6.13;;;1.40;99.90;;;;;;4168252;28;20333;-56
2024/03/20 02:50:16;;;;;;;8.47;5.73;;;1.50;99.90;;;;;;4162726;28;20811;-55
2024/03/20 02:52:18;;;;;;;9.30;6.80;;;1.50;99.90;;;;;;4161811;28;20333;-55
2024/03/20 02:54:19;;;;;;;8.97;5.97;;;1.40;99.90;;;;;;4162685;28;20251;-57
2024/03/20 02:56:20;;;;;;;10.37;5.97;;;1.50;99.90;;;;;;4173078;28;20539;-54
2024/03/20 02:58:22;;;;;;;10.63;5.83;;;1.50;99.90;;;;;;4179139;28;20274;-56
2024/03/20 03:00:23;;;;;;;8.23;5.57;;;1.50;99.90;;;;;;4177870;28;20683;-59
2024/03/20 03:02:24;;;;;;;8.77;5.70;;;1.40;99.90;;;;;;4177782;28;20266;-55
2024/03/20 03:04:25;;;;;;;16.27;7.77;;;1.40;99.90;;;;;;4162477;28;20274;-57
2024/03/20 03:06:27;;;;;;;12.57;6.83;;;1.40;99.90;;;;;;4162795;28;20275;-55
2024/03/20 03:08:28;;;;;;;14.67;6.37;;;1.30;99.90;;;;;;4161951;28;20258;-59
2024/03/20 03:10:29;;;;;;;11.50;6.97;;;1.30;99.90;;;;;;4161890;28;20931;-59
2024/03/20 03:12:31;;;;;;;14.43;6.60;;;1.30;99.90;;;;;;4162088;28;20266;-50
2024/03/20 03:14:32;;;;;;;9.47;6.40;;;1.20;99.90;;;;;;4161533;28;20279;-57
2024/03/20 03:16:33;;;;;;;10.30;6.20;;;1.20;99.90;;;;;;4172274;28;20258;-57
2024/03/20 03:18:36;;;;;;;10.70;6.67;;;1.10;99.90;;;;;;4160798;28;20263;-55
2024/03/20 03:20:40;;;;;;;10.10;6.77;;;1.10;99.90;;;;;;4162439;28;20259;-58
2024/03/20 03:22:44;;;;;;;11.17;6.90;;;1.10;99.90;;;;;;4160886;28;20348;-56
2024/03/20 03:24:45;;;;;;;9.60;6.57;;;1.00;99.90;;;;;;4171275;28;20683;-55
2024/03/20 03:26:48;;;;;;;8.50;5.57;;;1.00;99.90;;;;;;4177129;28;20266;-54
2024/03/20 03:28:50;;;;;;;11.33;7.07;;;1.00;99.90;;;;;;4178772;28;20266;-59
2024/03/20 03:30:51;;;;;;;9.87;6.00;;;1.10;99.90;;;;;;4164159;28;20353;-57
2024/03/20 03:32:52;;;;;;;11.20;6.80;;;1.00;99.90;;;;;;4163528;28;20278;-57
2024/03/20 03:34:54;;;;;;;14.17;6.30;;;1.00;99.90;;;;;;4161147;28;20278;-53
2024/03/20 03:36:55;;;;;;;10.67;6.87;;;1.00;99.90;;;;;;4162541;28;20325;-59
2024/03/20 03:38:57;;;;;;;9.97;6.13;;;1.00;99.90;;;;;;4161416;28;20348;-55
2024/03/20 03:41:04;;;;;;;10.97;6.90;;;1.00;99.90;;;;;;4161677;28;20631;-55
2024/03/20 03:43:06;;;;;;;12.20;6.37;;;1.00;99.90;;;;;;4165569;28;20652;-58
2024/03/20 03:45:08;;;;;;;10.70;6.30;;;1.00;99.90;;;;;;4167357;28;20336;-60
2024/03/20 03:47:10;;;;;;;10.47;6.73;;;1.00;99.90;;;;;;4165040;28;20254;-53
2024/03/20 03:49:11;;;;;;;11.67;6.67;;;1.00;99.90;;;;;;4177693;28;20496;-57
2024/03/20 03:51:13;;;;;;;11.23;6.50;;;0.90;99.90;;;;;;4178019;28;20680;-57
2024/03/20 03:53:16;;;;;;;9.40;6.07;;;1.00;99.90;;;;;;4176848;28;20331;-60
2024/03/20 03:55:17;;;;;;;8.30;6.37;;;0.90;99.90;;;;;;4177497;28;20332;-56
2024/03/20 03:57:19;;;;;;;14.20;6.93;;;0.90;99.90;;;;;;4173765;28;20992;-56
2024/03/20 03:59:20;;;;;;;13.40;7.53;;;0.90;99.90;;;;;;4161213;28;20271;-60
2024/03/20 04:01:21;;;;;;;13.63;7.70;;;0.90;99.90;;;;;;4161265;28;20547;-58
2024/03/20 04:03:27;;;;;;;9.80;6.60;;;0.90;99.90;;;;;;4161893;28;20274;-57
2024/03/20 04:05:30;;;;;;;10.30;7.17;;;1.00;99.90;;;;;;4160906;28;20739;-58
2024/03/20 04:07:31;;;;;;;13.03;6.90;;;1.00;99.90;;;;;;4162174;28;20735;-58
2024/03/20 04:09:33;;;;;;;12.43;6.63;;;1.00;99.90;;;;;;4161083;28;20658;-57
2024/03/20 04:11:36;;;;;;;12.57;6.93;;;1.00;99.90;;;;;;4176410;28;21118;-56
2024/03/20 04:13:38;;;;;;;10.57;6.57;;;1.00;99.90;;;;;;4161318;28;20320;-56
2024/03/20 04:15:39;;;;;;;13.27;7.40;;;1.00;99.90;;;;;;4161658;28;20271;-60
2024/03/20 04:17:40;;;;;;;12.27;7.00;;;1.00;99.90;;;;;;4160923;28;20282;-60
2024/03/20 04:19:42;;;;;;;18.83;7.73;;;1.00;99.90;;;;;;4161299;28;20739;-57
2024/03/20 04:21:43;;;;;;;13.37;7.40;;;0.90;99.90;;;;;;4160530;28;20321;-57
2024/03/20 04:23:44;;;;;;;11.03;7.33;;;1.00;99.90;;;;;;4161643;28;20328;-57
2024/03/20 04:25:45;;;;;;;16.30;7.40;;;1.00;99.90;;;;;;4175103;28;20294;-58
2024/03/20 04:27:47;;;;;;;13.23;7.40;;;1.00;99.90;;;;;;4176345;28;20278;-57
2024/03/20 04:29:48;;;;;;;14.17;8.27;;;1.00;99.90;;;;;;4176767;28;20793;-58
2024/03/20 04:31:49;;;;;;;17.33;8.03;;;1.00;99.90;;;;;;4176884;28;20359;-57
2024/03/20 04:33:50;;;;;;;18.73;8.60;;;1.00;99.90;;;;;;4177998;28;20769;-59
2024/03/20 04:35:52;;;;;;;13.93;7.50;;;0.90;99.90;;;;;;4166050;28;20271;-58
2024/03/20 04:37:53;;;;;;;17.67;8.90;;;0.90;99.90;;;;;;4173808;28;20308;-57
2024/03/20 04:39:54;;;;;;;12.80;7.93;;;0.90;99.90;;;;;;4169200;28;20344;-55
2024/03/20 04:41:56;;;;;;;15.43;8.37;;;0.90;99.90;;;;;;4161240;28;20259;-56
2024/03/20 04:43:58;;;;;;;14.50;8.67;;;0.90;99.90;;;;;;4174568;28;20301;-60
2024/03/20 04:45:59;;;;;;;16.43;8.73;;;1.00;99.90;;;;;;4170026;28;20286;-59
2024/03/20 04:48:03;;;;;;;12.70;7.73;;;1.20;99.90;;;;;;4160109;28;20295;-59
2024/03/20 04:50:13;;;;;;;13.50;9.00;;;1.40;99.90;;;;;;4166838;28;20262;-57
2024/03/20 04:52:14;;;;;;;13.55;8.55;;;1.60;99.90;;;;;;4174770;28;20306;-57
2024/03/20 04:54:16;;;;;;;12.50;7.67;;;1.80;99.90;;;;;;4165240;28;20068;-60
2024/03/20 04:56:17;;;;;;;12.37;7.73;;;2.10;99.90;;;;;;4176677;28;20815;-57
2024/03/20 04:58:19;;;;;;;12.73;7.67;;;2.40;99.90;;;;;;4177583;28;20278;-60
2024/03/20 05:00:20;;;;;;;14.53;6.87;;;2.60;99.90;;;;;;4193215;28;20358;-58
2024/03/20 05:02:22;;;;;;;11.87;7.30;;;2.80;99.90;;;;;;4192813;28;20270;-56
2024/03/20 05:04:23;;;;;;;13.93;7.67;;;2.90;99.90;;;;;;4193969;28;20257;-58
2024/03/20 05:06:24;;;;;;;12.17;6.83;;;3.00;99.90;;;;;;4192342;28;20335;-57
2024/03/20 05:08:25;;;;;;;14.30;8.60;;;3.00;99.90;;;;;;4193867;28;20277;-54
2024/03/20 05:10:27;;;;;;;9.53;6.83;;;3.00;99.90;;;;;;4192704;28;20747;-53
2024/03/20 05:12:28;;;;;;;14.33;7.60;;;2.90;99.90;;;;;;4171163;28;20298;-56
2024/03/20 05:14:29;;;;;;;13.23;6.57;;;2.80;99.90;;;;;;4175818;28;20423;-56
2024/03/20 05:16:30;;;;;;;12.80;7.43;;;2.80;99.90;;;;;;4165263;28;20274;-53
2024/03/20 05:18:32;;;;;;;13.33;8.73;;;2.70;99.90;;;;;;4160225;28;20362;-57
2024/03/20 05:20:33;;;;;;;14.97;7.93;;;2.70;99.90;;;;;;4176586;28;20304;-55
2024/03/20 05:22:34;;;;;;;11.20;7.53;;;2.70;99.90;;;;;;4176684;28;20254;-57
2024/03/20 05:24:36;;;;;;;12.80;7.50;;;2.70;99.90;;;;;;4168202;28;20263;-56
2024/03/20 05:26:37;;;;;;;13.30;7.93;;;2.80;99.90;;;;;;4176480;28;20279;-56
2024/03/20 05:28:39;;;;;;;13.63;7.80;;;2.80;99.90;;;;;;4166371;28;20336;-57
2024/03/20 05:30:40;;;;;;;14.20;7.70;;;2.90;99.90;;;;;;4164077;28;20286;-56
2024/03/20 05:32:42;;;;;;;16.43;8.10;;;3.00;99.90;;;;;;4163600;28;20788;-58
2024/03/20 05:34:43;;;;;;;11.97;7.70;;;3.30;99.90;;;;;;4167421;28;20332;-52
2024/03/20 05:36:44;;;;;;;14.67;8.27;;;3.60;99.90;;;;;;4175640;28;20681;-55
2024/03/20 05:38:45;;;;;;;16.87;8.60;;;3.80;99.90;;;;;;4168411;28;20278;-59
2024/03/20 05:40:47;;;;;;;16.77;8.57;;;4.10;99.90;;;;;;4161933;28;20337;-53
2024/03/20 05:42:48;;;;;;;16.63;8.20;;;4.20;99.90;;;;;;4168123;28;20281;-53
2024/03/20 05:44:49;;;;;;;13.10;8.13;;;4.40;99.90;;;;;;4170325;28;20263;-54
2024/03/20 05:46:51;;;;;;;13.10;7.90;;;4.40;99.90;;;;;;4163873;28;20319;-55
2024/03/20 05:48:52;;;;;;;15.30;7.60;;;4.50;99.90;;;;;;4162143;28;20320;-55
2024/03/20 05:50:56;;;;;;;13.40;7.90;;;4.70;99.90;;;;;;4163463;28;20262;-56
2024/03/20 05:52:57;;;;;;;15.60;7.90;;;4.90;99.90;;;;;;4162773;28;20317;-56
2024/03/20 05:54:58;;;;;;;17.73;8.37;;;5.10;99.90;;;;;;4163108;28;20321;-52
2024/03/20 05:56:59;;;;;;;12.07;8.07;;;5.50;99.90;;;;;;4162791;28;20881;-53
2024/03/20 05:59:01;;;;;;;13.13;8.30;;;6.00;99.90;;;;;;4162965;28;20042;-58
2024/03/20 06:01:03;;;;;;;13.43;7.50;;;6.40;99.90;;;;;;4165626;28;20057;-52
2024/03/20 06:03:04;;;;;;;12.37;7.33;;;6.90;99.90;;;;;;4173382;28;20094;-57
2024/03/20 06:05:05;;;;;;;11.27;7.23;;;7.40;99.90;;;;;;4167253;28;20436;-56
2024/03/20 06:07:07;;;;;;;12.53;7.30;;;7.90;99.90;;;;;;4178290;28;20037;-57
2024/03/20 06:09:10;;;;;;;11.57;6.97;;;8.50;99.90;;;;;;4178082;28;20459;-58
2024/03/20 06:11:12;;;;;;;9.37;5.90;;;9.10;99.90;;;;;;4162295;28;20033;-55
2024/03/20 06:13:13;;;;;;;9.60;5.53;;;9.50;99.90;;;;;;4166151;28;20083;-60
2024/03/20 06:15:14;;;;;;;11.33;5.70;;;9.70;99.90;;;;;;4161619;28;20493;-56
2024/03/20 06:17:16;;;;;;;10.80;6.50;;;10.00;99.90;;;;;;4172243;28;20063;-55
2024/03/20 06:19:17;;;;;;;10.20;6.27;;;10.40;99.90;;;;;;4178063;28;20053;-54
2024/03/20 06:21:19;;;;;;;7.13;5.80;;;10.60;99.90;;;;;;4179020;28;20067;-54
2024/03/20 06:23:20;;;;;;;7.67;4.87;;;10.90;99.90;;;;;;4178654;28;20444;-56
2024/03/20 06:25:21;;;;;;;8.30;5.60;;;11.20;99.90;;;;;;4178620;28;20041;-57
2024/03/20 06:27:22;;;;;;;8.13;5.07;;;11.40;99.90;;;;;;4178282;28;20041;-60
2024/03/20 06:29:24;;;;;;;7.20;5.47;;;11.80;99.90;;;;;;4178273;28;20447;-60
2024/03/20 06:31:25;;;;;;;12.60;5.93;;;12.20;99.90;;;;;;4179134;28;20550;-54
2024/03/20 06:33:26;;;;;;;10.73;5.33;;;12.40;99.80;;;;;;4178465;28;20443;-57
2024/03/20 06:35:28;;;;;;;7.27;5.10;;;12.20;99.00;;;;;;4179251;28;20076;-54
2024/03/20 06:37:29;;;;;;;10.60;5.97;;;11.70;99.10;;;;;;4177848;28;20087;-58
2024/03/20 06:39:31;;;;;;;6.73;4.97;;;11.20;99.40;;;;;;4179241;28;20558;-56
2024/03/20 06:41:32;;;;;;;8.03;5.13;;;11.20;99.40;;;;;;4177743;28;20508;-58
2024/03/20 06:43:34;;;;;;;9.20;5.07;;;10.80;99.40;;;;;;4179159;28;20033;-59
2024/03/20 06:45:40;;;;;;;9.13;5.33;;;11.00;99.60;;;;;;4177692;28;20045;-58
2024/03/20 06:47:43;;;;;;;10.40;6.13;;;11.50;99.50;;;;;;4178779;28;20439;-55
2024/03/20 06:49:45;;;;;;;10.60;6.27;;;11.50;98.60;;;;;;4177435;28;20486;-59
2024/03/20 06:51:49;;;;;;;8.00;5.43;;;11.30;99.00;;;;;;4178888;28;20091;-57
2024/03/20 06:53:50;;;;;;;8.43;5.57;;;11.30;98.50;;;;;;4177892;28;20404;-56
2024/03/20 06:55:54;;;;;;;8.40;5.90;;;10.90;98.70;;;;;;4178480;28;20037;-58
2024/03/20 06:57:55;;;;;;;9.77;6.67;;;11.00;99.20;;;;;;4178054;28;20029;-58
2024/03/20 06:59:56;;;;;;;6.20;4.70;;;11.10;98.80;;;;;;4177889;28;20812;-56
2024/03/20 07:01:58;;;;;;;7.10;4.70;;;10.90;98.90;;;;;;4177868;28;20066;-56
2024/03/20 07:03:59;;;;;;;6.10;4.53;;;10.70;98.80;;;;;;4177949;28;20071;-58
2024/03/20 07:06:00;;;;;;;7.00;3.97;;;10.50;99.10;;;;;;4178096;28;20040;-56
2024/03/20 07:08:01;;;;;;;6.50;3.97;;;10.20;99.30;;;;;;4177521;28;20075;-56
2024/03/20 07:10:03;;;;;;;6.90;4.07;;;10.00;99.40;;;;;;4177947;28;20033;-55
2024/03/20 07:12:04;;;;;;;11.27;5.30;;;9.90;99.70;;;;;;4177126;28;20550;-57
2024/03/20 07:14:06;;;;;;;9.93;5.43;;;10.00;99.90;;;;;;4178031;28;20480;-55
2024/03/20 07:16:07;;;;;;;7.17;4.80;;;10.10;99.80;;;;;;4176725;28;20183;-57
2024/03/20 07:18:08;;;;;;;6.53;4.90;;;10.10;99.80;;;;;;4178220;28;20118;-52
2024/03/20 07:20:10;;;;;;;5.93;4.83;;;10.20;99.90;;;;;;4177449;28;20098;-56
2024/03/20 07:22:14;;;;;;;5.97;3.77;;;10.80;99.70;;;;;;4177940;28;20087;-57
2024/03/20 07:24:16;;;;;;;6.70;3.70;;;10.50;99.10;;;;;;4176533;28;21523;-56
2024/03/20 07:26:17;;;;;;;5.87;4.07;;;10.20;99.40;;;;;;4178024;28;20489;-57
2024/03/20 07:28:18;;;;;;;5.63;4.43;;;10.00;99.40;;;;;;4176776;28;20025;-56
2024/03/20 07:30:20;;;;;;;5.57;3.60;;;9.80;99.70;;;;;;4177480;28;20032;-58
2024/03/20 07:32:21;;;;;;;5.57;3.77;;;9.90;99.90;;;;;;4177140;28;20045;-57
2024/03/20 07:34:22;;;;;;;6.07;4.07;;;9.60;99.90;;;;;;4177612;28;20094;-58
2024/03/20 07:36:24;;;;;;;7.53;3.87;;;9.40;99.90;;;;;;4177334;28;20033;-55
2024/03/20 07:38:26;;;;;;;3.90;3.37;;;9.30;99.90;;;;;;4176833;28;20095;-53
2024/03/20 07:40:33;;;;;;;5.03;3.43;;;9.50;99.90;;;;;;4177407;28;20041;-56
2024/03/20 07:42:35;;;;;;;4.60;3.50;;;9.60;99.90;;;;;;4176329;28;20122;-54
2024/03/20 07:44:36;;;;;;;13.37;4.77;;;9.10;99.90;;;;;;4177298;28;20025;-57
2024/03/20 07:46:38;;;;;;;10.00;4.27;;;9.10;99.90;;;;;;4176828;28;20874;-55
2024/03/20 07:48:49;;;;;;;9.87;3.77;;;9.40;99.90;;;;;;4177751;28;20040;-56
2024/03/20 07:50:54;;;;;;;4.10;2.90;;;9.80;99.90;;;;;;4176500;28;20029;-55
2024/03/20 07:52:55;;;;;;;11.63;3.07;;;9.80;99.90;;;;;;4177629;28;20551;-55
2024/03/20 07:54:57;;;;;;;6.83;3.00;;;9.70;99.60;;;;;;4176762;28;20070;-57
2024/03/20 07:56:58;;;;;;;3.90;3.10;;;9.70;99.80;;;;;;4177968;28;20155;-56
2024/03/20 07:58:59;;;;;;;3.37;3.00;;;9.90;99.80;;;;;;4176813;28;20033;-56
2024/03/20 08:01:01;;;;;;;5.17;2.70;;;10.20;99.70;;;;;;4177256;28;20049;-57
2024/03/20 08:03:02;;;;;;;4.97;3.30;;;9.40;99.00;;;;;;4176528;28;20052;-56
2024/03/20 08:05:06;;;;;;;4.20;2.90;;;8.90;99.70;;;;;;4177979;28;20033;-57
2024/03/20 08:07:07;;;;;;;5.70;3.23;;;8.60;99.90;;;;;;4176764;28;20071;-55
2024/03/20 08:09:09;;;;;;;4.20;2.67;;;8.60;99.90;;;;;;4177575;28;20025;-57
2024/03/20 08:11:10;;;;;;;10.33;2.93;;;8.60;99.90;;;;;;4176978;28;20074;-52
2024/03/20 08:13:12;;;;;;;6.77;3.50;;;8.80;99.90;;;;;;4177093;28;20040;-57
2024/03/20 08:15:13;;;;;;;5.90;3.30;;;8.90;99.90;;;;;;4177117;28;20106;-50
2024/03/20 08:17:16;;;;;;;5.40;3.33;;;8.70;99.90;;;;;;4176251;28;20451;-54
2024/03/20 08:19:17;;;;;;;6.50;3.20;;;8.70;99.90;;;;;;4177049;28;20036;-53
2024/03/20 08:21:18;;;;;;;4.07;3.20;;;9.10;99.90;;;;;;4176521;28;20029;-56
2024/03/20 08:23:20;;;;;;;4.50;3.50;;;9.40;99.90;;;;;;4176960;28;20083;-56
2024/03/20 08:25:21;;;;;;;6.07;3.50;;;9.10;99.90;;;;;;4175955;28;20025;-58
2024/03/20 08:27:26;;;;;;;7.63;3.50;;;9.20;99.90;;;;;;4177794;28;20029;-57
2024/03/20 08:29:28;;;;;;;4.63;3.37;;;9.40;99.90;;;;;;4175848;28;20368;-56
2024/03/20 08:31:29;;;;;;;4.03;2.50;;;9.80;99.90;;;;;;4177418;28;20025;-56
2024/03/20 08:33:30;;;;;;;5.27;3.60;;;10.20;99.80;;;;;;4175888;28;20053;-57
2024/03/20 08:35:31;;;;;;;4.77;3.07;;;10.30;99.40;;;;;;4177275;28;20142;-57
2024/03/20 08:37:33;;;;;;;4.23;3.37;;;9.90;99.40;;;;;;4175926;28;20036;-56
2024/03/20 08:39:34;;;;;;;6.73;3.07;;;9.40;99.50;;;;;;4176618;28;20033;-61
2024/03/20 08:41:36;;;;;;;4.40;3.20;;;9.30;99.90;;;;;;4176548;28;20025;-54
2024/03/20 08:43:38;;;;;;;7.07;3.73;;;8.70;99.90;;;;;;4176456;28;20049;-57
2024/03/20 08:45:40;;;;;;;4.87;3.30;;;8.60;99.90;;;;;;4176623;28;20033;-53
2024/03/20 08:47:42;;;;;;;4.17;3.07;;;8.50;99.90;;;;;;4176326;28;20053;-54
2024/03/20 08:49:44;;;;;;;3.77;3.13;;;8.60;99.90;;;;;;4177018;28;20114;-56
2024/03/20 08:51:45;;;;;;;5.40;3.17;;;8.60;99.90;;;;;;4175823;28;20087;-55
2024/03/20 08:53:47;;;;;;;4.23;2.80;;;8.80;99.90;;;;;;4177246;28;20071;-57
2024/03/20 08:55:48;;;;;;;3.50;2.87;;;9.10;99.90;;;;;;4175926;28;20041;-54
2024/03/20 08:57:49;;;;;;;4.27;2.70;;;9.40;99.90;;;;;;4176893;28;20041;-57
2024/03/20 08:59:51;;;;;;;5.10;2.67;;;9.70;99.90;;;;;;4175632;28;20041;-58
2024/03/20 09:01:52;;;;;;;6.73;3.70;;;9.90;99.70;;;;;;4177099;28;20049;-59
2024/03/20 09:03:53;;;;;;;5.03;3.37;;;10.00;99.50;;;;;;4176426;28;20033;-58
2024/03/20 09:05:54;;;;;;;6.60;2.80;;;10.10;99.40;;;;;;4176759;28;20086;-55
2024/03/20 09:07:57;;;;;;;7.17;3.67;;;10.20;99.50;;;;;;4176022;28;20366;-56
2024/03/20 09:09:58;;;;;;;4.87;2.70;;;10.30;99.50;;;;;;4176823;28;20447;-57
2024/03/20 09:12:00;;;;;;;6.17;3.53;;;10.40;99.10;;;;;;4175867;28;20539;-56
2024/03/20 09:14:01;;;;;;;3.70;2.90;;;10.40;99.20;;;;;;4178519;28;20544;-54
2024/03/20 09:16:04;;;;;;;4.10;2.77;;;10.50;99.10;;;;;;4179763;28;20033;-53
2024/03/20 09:18:05;;;;;;;4.13;3.13;;;10.60;99.00;;;;;;4179480;28;20083;-58
2024/03/20 09:20:19;;;;;;;4.57;3.37;;;10.60;98.80;;;;;;4180091;28;20025;-59
2024/03/20 09:22:20;;;;;;;4.63;2.90;;;10.60;98.90;;;;;;4179358;28;20417;-53
2024/03/20 09:24:22;;;;;;;4.30;2.60;;;10.80;98.80;;;;;;4179973;28;20082;-55
2024/03/20 09:26:23;;;;;;;2.70;2.30;;;10.70;98.00;;;;;;4178527;28;20169;-57
2024/03/20 09:28:25;;;;;;;3.30;2.20;;;10.70;98.70;;;;;;4179697;28;20118;-59
2024/03/20 09:30:26;;;;;;;2.83;2.10;;;10.80;98.50;;;;;;4178648;28;20922;-56
2024/03/20 09:32:29;;;;;;;3.93;2.30;;;10.90;98.30;;;;;;4180106;28;20450;-57
2024/03/20 09:34:32;;;;;;;5.80;2.57;;;11.10;98.30;;;;;;4179051;28;20049;-56
2024/03/20 09:36:34;;;;;;;5.20;2.67;;;10.80;98.00;;;;;;4179715;28;20052;-57
2024/03/20 09:38:35;;;;;;;4.33;2.50;;;10.40;98.10;;;;;;4178818;28;20095;-55
2024/03/20 09:40:36;;;;;;;3.73;2.23;;;10.00;98.50;;;;;;4179751;28;20134;-54
2024/03/20 09:42:38;;;;;;;5.93;2.87;;;9.80;98.50;;;;;;4178374;28;20060;-54
2024/03/20 09:44:40;;;;;;;3.67;2.27;;;9.90;98.90;;;;;;4179635;28;20385;-56
2024/03/20 09:46:41;;;;;;;3.73;2.40;;;10.10;98.90;;;;;;4178267;28;20032;-56
2024/03/20 09:48:43;;;;;;;6.73;3.07;;;10.20;98.60;;;;;;4179002;28;20045;-56
2024/03/20 09:50:45;;;;;;;3.73;2.80;;;10.10;98.50;;;;;;4179140;28;20431;-56
2024/03/20 09:52:49;;;;;;;2.87;2.47;;;10.10;98.90;;;;;;4179128;28;20037;-59
2024/03/20 09:54:51;;;;;;;2.60;2.40;;;10.10;98.70;;;;;;4178604;28;20087;-55
2024/03/20 09:56:53;;;;;;;4.60;2.73;;;10.30;98.70;;;;;;4178381;28;20049;-54
2024/03/20 09:58:55;;;;;;;7.57;2.93;;;10.50;98.50;;;;;;4178864;28;20045;-57
2024/03/20 10:00:56;;;;;;;9.97;3.30;;;10.80;98.00;;;;;;4177673;28;20049;-57
2024/03/20 10:02:58;;;;;;;5.27;3.00;;;10.80;97.90;;;;;;4179527;28;20032;-56
2024/03/20 10:04:59;;;;;;;5.57;3.53;;;10.80;98.00;;;;;;4178417;28;20567;-59
2024/03/20 10:07:15;;;;;;;5.53;3.20;;;10.80;98.00;;;;;;4179319;28;20107;-57
2024/03/20 10:09:16;;;;;;;4.63;3.07;;;10.80;97.90;;;;;;4178354;28;20029;-54
2024/03/20 10:11:18;;;;;;;4.47;3.13;;;10.90;98.20;;;;;;4178901;28;20041;-57
2024/03/20 10:13:19;;;;;;;4.03;2.80;;;11.10;98.30;;;;;;4177598;28;20048;-55
2024/03/20 10:15:24;;;;;;;4.10;2.70;;;11.10;98.00;;;;;;4179305;28;20052;-58
2024/03/20 10:17:25;;;;;;;4.70;2.90;;;10.70;97.60;;;;;;4177904;28;20053;-56
2024/03/20 10:19:27;;;;;;;3.87;2.77;;;10.50;98.00;;;;;;4179525;28;20103;-56
2024/03/20 10:21:28;;;;;;;7.20;2.73;;;10.30;98.00;;;;;;4177725;28;20509;-56
2024/03/20 10:23:30;;;;;;;4.13;3.00;;;10.10;98.30;;;;;;4178874;28;20037;-58
2024/03/20 10:25:31;;;;;;;4.83;2.40;;;10.20;98.40;;;;;;4177528;28;20033;-54
2024/03/20 10:27:34;;;;;;;3.97;2.50;;;10.10;98.30;;;;;;4178767;28;20103;-59
2024/03/20 10:29:38;;;;;;;4.67;2.57;;;10.30;98.30;;;;;;4178697;28;20025;-56
2024/03/20 10:31:41;;;;;;;2.77;2.10;;;10.50;98.40;;;;;;4178160;28;20103;-55
2024/03/20 10:33:42;;;;;;;3.40;2.40;;;10.40;97.90;;;;;;4178185;28;20049;-57
2024/03/20 10:35:51;;;;;;;4.43;2.30;;;10.30;97.90;;;;;;4178032;28;20037;-57
2024/03/20 10:37:52;;;;;;;4.17;2.70;;;10.20;98.00;;;;;;4178726;28;20079;-54